sensor_id;sensor_type;location;lat;lon;timestamp;pressure;altitude;pressure_sealevel;temperature;humidity
61292;BME280;47165;42.664;23.368;2022-08-21T00:00:57;94484.06;;;21.23;77.01
61292;BME280;47165;42.664;23.368;2022-08-21T00:03:22;94490.34;;;21.22;76.93
61292;BME280;47165;42.664;23.368;2022-08-21T00:05:50;94481.22;;;21.25;76.95
61292;BME280;47165;42.664;23.368;2022-08-21T00:08:19;94475.56;;;21.28;76.98
61292;BME280;47165;42.664;23.368;2022-08-21T00:10:46;94478.22;;;21.28;77.03
61292;BME280;47165;42.664;23.368;2022-08-21T00:13:13;94467.78;;;21.26;76.44
61292;BME280;47165;42.664;23.368;2022-08-21T00:15:40;94474.09;;;21.25;76.25
61292;BME280;47165;42.664;23.368;2022-08-21T00:18:07;94465.63;;;21.22;75.87
61292;BME280;47165;42.664;23.368;2022-08-21T00:20:34;94466.94;;;21.18;75.71
61292;BME280;47165;42.664;23.368;2022-08-21T00:23:00;94463.78;;;21.06;75.75
61292;BME280;47165;42.664;23.368;2022-08-21T00:25:26;94458.00;;;21.10;75.53
61292;BME280;47165;42.664;23.368;2022-08-21T00:27:53;94453.16;;;21.14;75.27
61292;BME280;47165;42.664;23.368;2022-08-21T00:30:20;94465.78;;;21.12;75.95
61292;BME280;47165;42.664;23.368;2022-08-21T00:32:46;94456.31;;;21.09;76.00
61292;BME280;47165;42.664;23.368;2022-08-21T00:35:16;94455.00;;;21.14;75.63
61292;BME280;47165;42.664;23.368;2022-08-21T00:37:42;94452.50;;;21.12;75.38
61292;BME280;47165;42.664;23.368;2022-08-21T00:40:10;94462.66;;;21.17;75.02
61292;BME280;47165;42.664;23.368;2022-08-21T00:42:36;94458.97;;;21.18;75.64
61292;BME280;47165;42.664;23.368;2022-08-21T00:45:03;94468.13;;;21.15;75.87
61292;BME280;47165;42.664;23.368;2022-08-21T00:47:28;94461.63;;;21.09;75.52
61292;BME280;47165;42.664;23.368;2022-08-21T00:49:54;94465.63;;;21.14;75.50
61292;BME280;47165;42.664;23.368;2022-08-21T00:52:22;94467.97;;;21.17;76.00
61292;BME280;47165;42.664;23.368;2022-08-21T00:54:50;94476.22;;;21.14;75.89
61292;BME280;47165;42.664;23.368;2022-08-21T00:57:24;94466.28;;;21.16;75.19
61292;BME280;47165;42.664;23.368;2022-08-21T00:59:52;94449.84;;;21.12;75.14
61292;BME280;47165;42.664;23.368;2022-08-21T01:02:20;94454.00;;;21.15;75.19
61292;BME280;47165;42.664;23.368;2022-08-21T01:04:46;94451.53;;;21.13;75.67
61292;BME280;47165;42.664;23.368;2022-08-21T01:07:12;94452.03;;;21.17;75.88
61292;BME280;47165;42.664;23.368;2022-08-21T01:09:37;94446.72;;;21.17;75.67
61292;BME280;47165;42.664;23.368;2022-08-21T01:12:04;94443.06;;;21.18;75.27
61292;BME280;47165;42.664;23.368;2022-08-21T01:14:30;94441.22;;;21.18;75.02
61292;BME280;47165;42.664;23.368;2022-08-21T01:16:57;94441.22;;;21.18;74.87
61292;BME280;47165;42.664;23.368;2022-08-21T01:19:25;94435.75;;;21.12;74.47
61292;BME280;47165;42.664;23.368;2022-08-21T01:21:51;94444.38;;;21.14;74.63
61292;BME280;47165;42.664;23.368;2022-08-21T01:24:17;94434.78;;;21.13;75.07
61292;BME280;47165;42.664;23.368;2022-08-21T01:26:43;94438.91;;;21.15;75.86
61292;BME280;47165;42.664;23.368;2022-08-21T01:29:39;94436.41;;;21.14;76.29
61292;BME280;47165;42.664;23.368;2022-08-21T01:32:10;94432.78;;;21.15;76.36
61292;BME280;47165;42.664;23.368;2022-08-21T01:34:39;94429.47;;;21.13;76.02
61292;BME280;47165;42.664;23.368;2022-08-21T01:37:06;94426.13;;;21.10;75.87
61292;BME280;47165;42.664;23.368;2022-08-21T01:39:32;94442.06;;;21.10;76.22
61292;BME280;47165;42.664;23.368;2022-08-21T01:41:58;94448.69;;;21.06;76.09
61292;BME280;47165;42.664;23.368;2022-08-21T01:44:24;94442.88;;;20.95;76.09
61292;BME280;47165;42.664;23.368;2022-08-21T01:46:50;94442.22;;;21.01;76.40
61292;BME280;47165;42.664;23.368;2022-08-21T01:49:16;94443.03;;;21.01;76.73
61292;BME280;47165;42.664;23.368;2022-08-21T01:51:43;94449.19;;;21.02;76.55
61292;BME280;47165;42.664;23.368;2022-08-21T01:54:09;94441.06;;;21.03;76.56
61292;BME280;47165;42.664;23.368;2022-08-21T01:56:46;94440.75;;;21.06;76.51
61292;BME280;47165;42.664;23.368;2022-08-21T01:59:12;94443.72;;;21.03;76.94
61292;BME280;47165;42.664;23.368;2022-08-21T02:01:38;94448.34;;;21.01;77.21
61292;BME280;47165;42.664;23.368;2022-08-21T02:04:07;94443.03;;;21.01;77.33
61292;BME280;47165;42.664;23.368;2022-08-21T02:06:33;94441.41;;;21.00;77.49
61292;BME280;47165;42.664;23.368;2022-08-21T02:08:58;94451.00;;;21.01;77.38
61292;BME280;47165;42.664;23.368;2022-08-21T02:11:24;94462.63;;;21.00;77.28
61292;BME280;47165;42.664;23.368;2022-08-21T02:13:49;94460.13;;;20.99;77.38
61292;BME280;47165;42.664;23.368;2022-08-21T02:16:15;94453.16;;;20.98;77.30
61292;BME280;47165;42.664;23.368;2022-08-21T02:18:40;94463.78;;;20.98;77.66
61292;BME280;47165;42.664;23.368;2022-08-21T02:21:06;94465.28;;;21.00;77.64
61292;BME280;47165;42.664;23.368;2022-08-21T02:23:32;94456.31;;;21.01;77.28
61292;BME280;47165;42.664;23.368;2022-08-21T02:26:03;94456.16;;;21.03;77.48
61292;BME280;47165;42.664;23.368;2022-08-21T02:28:29;94469.28;;;21.04;77.44
61292;BME280;47165;42.664;23.368;2022-08-21T02:30:56;94470.91;;;21.05;77.80
61292;BME280;47165;42.664;23.368;2022-08-21T02:33:22;94471.94;;;21.04;77.87
61292;BME280;47165;42.664;23.368;2022-08-21T02:35:49;94461.97;;;21.06;77.91
61292;BME280;47165;42.664;23.368;2022-08-21T02:38:18;94458.31;;;21.07;78.02
61292;BME280;47165;42.664;23.368;2022-08-21T02:40:46;94465.44;;;21.07;77.70
61292;BME280;47165;42.664;23.368;2022-08-21T02:43:12;94458.66;;;21.04;77.87
61292;BME280;47165;42.664;23.368;2022-08-21T02:45:39;94463.13;;;21.04;77.84
61292;BME280;47165;42.664;23.368;2022-08-21T02:48:07;94462.28;;;21.03;77.83
61292;BME280;47165;42.664;23.368;2022-08-21T02:50:37;94456.00;;;21.04;77.86
61292;BME280;47165;42.664;23.368;2022-08-21T02:53:04;94457.13;;;21.02;77.95
61292;BME280;47165;42.664;23.368;2022-08-21T02:55:31;94463.31;;;21.02;78.21
61292;BME280;47165;42.664;23.368;2022-08-21T02:57:58;94467.59;;;21.03;78.12
61292;BME280;47165;42.664;23.368;2022-08-21T03:00:26;94464.63;;;21.06;78.41
61292;BME280;47165;42.664;23.368;2022-08-21T03:02:52;94467.28;;;21.06;78.26
61292;BME280;47165;42.664;23.368;2022-08-21T03:05:18;94471.75;;;21.06;78.18
61292;BME280;47165;42.664;23.368;2022-08-21T03:07:45;94474.59;;;21.04;78.15
61292;BME280;47165;42.664;23.368;2022-08-21T03:10:11;94466.63;;;21.04;77.98
61292;BME280;47165;42.664;23.368;2022-08-21T03:12:37;94464.28;;;21.01;77.43
61292;BME280;47165;42.664;23.368;2022-08-21T03:15:09;94458.97;;;21.01;77.78
61292;BME280;47165;42.664;23.368;2022-08-21T03:17:35;94454.66;;;21.00;77.69
61292;BME280;47165;42.664;23.368;2022-08-21T03:20:01;94461.47;;;21.03;77.18
61292;BME280;47165;42.664;23.368;2022-08-21T03:22:28;94465.75;;;21.04;77.43
61292;BME280;47165;42.664;23.368;2022-08-21T03:24:53;94462.28;;;21.03;77.59
61292;BME280;47165;42.664;23.368;2022-08-21T03:27:19;94475.56;;;21.03;77.69
61292;BME280;47165;42.664;23.368;2022-08-21T03:29:44;94472.91;;;21.03;77.68
61292;BME280;47165;42.664;23.368;2022-08-21T03:32:10;94465.09;;;21.02;77.78
61292;BME280;47165;42.664;23.368;2022-08-21T03:34:37;94465.94;;;21.02;77.94
61292;BME280;47165;42.664;23.368;2022-08-21T03:37:04;94466.94;;;21.01;77.66
61292;BME280;47165;42.664;23.368;2022-08-21T03:39:30;94467.94;;;21.00;77.64
61292;BME280;47165;42.664;23.368;2022-08-21T03:41:55;94464.63;;;20.98;77.97
61292;BME280;47165;42.664;23.368;2022-08-21T03:44:21;94463.78;;;20.98;77.91
61292;BME280;47165;42.664;23.368;2022-08-21T03:46:47;94464.09;;;20.86;77.92
61292;BME280;47165;42.664;23.368;2022-08-21T03:49:12;94458.63;;;20.88;78.05
61292;BME280;47165;42.664;23.368;2022-08-21T03:51:38;94459.47;;;20.88;77.95
61292;BME280;47165;42.664;23.368;2022-08-21T03:54:04;94471.56;;;20.91;77.39
61292;BME280;47165;42.664;23.368;2022-08-21T03:56:29;94481.50;;;20.89;77.10
61292;BME280;47165;42.664;23.368;2022-08-21T03:58:55;94474.56;;;20.88;77.11
61292;BME280;47165;42.664;23.368;2022-08-21T04:01:21;94482.84;;;20.85;77.08
61292;BME280;47165;42.664;23.368;2022-08-21T04:03:47;94491.63;;;20.85;77.10
61292;BME280;47165;42.664;23.368;2022-08-21T04:06:12;94478.53;;;20.84;77.23
61292;BME280;47165;42.664;23.368;2022-08-21T04:08:38;94483.84;;;20.84;77.34
61292;BME280;47165;42.664;23.368;2022-08-21T04:11:04;94494.28;;;20.85;77.27
61292;BME280;47165;42.664;23.368;2022-08-21T04:13:30;94492.78;;;20.83;76.86
61292;BME280;47165;42.664;23.368;2022-08-21T04:15:56;94491.97;;;20.82;76.63
61292;BME280;47165;42.664;23.368;2022-08-21T04:18:23;94478.19;;;20.79;76.66
61292;BME280;47165;42.664;23.368;2022-08-21T04:20:51;94477.19;;;20.72;77.16
61292;BME280;47165;42.664;23.368;2022-08-21T04:23:19;94476.19;;;20.73;77.46
61292;BME280;47165;42.664;23.368;2022-08-21T04:25:45;94482.66;;;20.70;77.50
61292;BME280;47165;42.664;23.368;2022-08-21T04:28:10;94478.50;;;20.67;77.27
61292;BME280;47165;42.664;23.368;2022-08-21T04:30:35;94482.94;;;20.67;76.89
61292;BME280;47165;42.664;23.368;2022-08-21T04:33:01;94478.50;;;20.67;77.43
61292;BME280;47165;42.664;23.368;2022-08-21T04:35:28;94480.00;;;20.70;77.43
61292;BME280;47165;42.664;23.368;2022-08-21T04:37:54;94486.13;;;20.70;77.35
61292;BME280;47165;42.664;23.368;2022-08-21T04:40:21;94478.16;;;20.70;77.44
61292;BME280;47165;42.664;23.368;2022-08-21T04:42:49;94475.50;;;20.70;77.73
61292;BME280;47165;42.664;23.368;2022-08-21T04:45:48;94480.50;;;20.74;77.23
61292;BME280;47165;42.664;23.368;2022-08-21T04:48:16;94478.16;;;20.70;77.56
61292;BME280;47165;42.664;23.368;2022-08-21T04:50:50;94485.97;;;20.72;77.30
61292;BME280;47165;42.664;23.368;2022-08-21T04:55:57;94476.50;;;20.69;77.79
61292;BME280;47165;42.664;23.368;2022-08-21T04:58:26;94478.16;;;20.70;77.84
61292;BME280;47165;42.664;23.368;2022-08-21T05:00:54;94473.38;;;20.74;77.58
61292;BME280;47165;42.664;23.368;2022-08-21T05:03:21;94469.88;;;20.74;77.40
61292;BME280;47165;42.664;23.368;2022-08-21T05:05:48;94473.53;;;20.73;77.66
61292;BME280;47165;42.664;23.368;2022-08-21T05:08:16;94472.19;;;20.77;77.89
61292;BME280;47165;42.664;23.368;2022-08-21T05:10:43;94469.56;;;20.77;78.21
61292;BME280;47165;42.664;23.368;2022-08-21T05:13:10;94478.19;;;20.79;78.02
61292;BME280;47165;42.664;23.368;2022-08-21T05:15:38;94475.53;;;20.79;78.12
61292;BME280;47165;42.664;23.368;2022-08-21T05:18:03;94480.53;;;20.82;77.26
61292;BME280;47165;42.664;23.368;2022-08-21T05:20:29;94474.88;;;20.85;76.74
61292;BME280;47165;42.664;23.368;2022-08-21T05:22:55;94463.09;;;20.87;77.46
61292;BME280;47165;42.664;23.368;2022-08-21T05:25:21;94463.94;;;20.88;78.47
61292;BME280;47165;42.664;23.368;2022-08-21T05:27:46;94472.22;;;20.93;79.33
61292;BME280;47165;42.664;23.368;2022-08-21T05:30:12;94475.25;;;20.98;79.54
61292;BME280;47165;42.664;23.368;2022-08-21T05:32:37;94477.25;;;21.04;79.28
61292;BME280;47165;42.664;23.368;2022-08-21T05:35:07;94474.91;;;21.18;78.69
61292;BME280;47165;42.664;23.368;2022-08-21T05:37:33;94470.78;;;21.23;79.14
61292;BME280;47165;42.664;23.368;2022-08-21T05:39:59;94465.63;;;21.30;79.52
61292;BME280;47165;42.664;23.368;2022-08-21T05:42:24;94460.97;;;21.40;80.18
61292;BME280;47165;42.664;23.368;2022-08-21T05:44:50;94459.50;;;21.46;79.45
61292;BME280;47165;42.664;23.368;2022-08-21T05:47:15;94456.34;;;21.59;79.12
61292;BME280;47165;42.664;23.368;2022-08-21T05:49:41;94452.69;;;21.68;78.71
61292;BME280;47165;42.664;23.368;2022-08-21T05:52:06;94454.31;;;21.77;78.11
61292;BME280;47165;42.664;23.368;2022-08-21T05:54:31;94455.31;;;21.84;78.04
61292;BME280;47165;42.664;23.368;2022-08-21T05:56:57;94452.78;;;21.91;78.28
61292;BME280;47165;42.664;23.368;2022-08-21T05:59:23;94456.94;;;21.94;77.50
61292;BME280;47165;42.664;23.368;2022-08-21T06:01:48;94454.75;;;21.97;77.55
61292;BME280;47165;42.664;23.368;2022-08-21T06:04:14;94459.59;;;21.94;76.63
61292;BME280;47165;42.664;23.368;2022-08-21T06:06:40;94474.84;;;22.00;76.70
61292;BME280;47165;42.664;23.368;2022-08-21T06:09:07;94464.72;;;22.03;76.32
61292;BME280;47165;42.664;23.368;2022-08-21T06:11:33;94462.88;;;22.04;76.78
61292;BME280;47165;42.664;23.368;2022-08-21T06:13:59;94459.91;;;22.07;77.36
61292;BME280;47165;42.664;23.368;2022-08-21T06:16:25;94457.03;;;22.08;76.42
61292;BME280;47165;42.664;23.368;2022-08-21T06:18:51;94444.25;;;22.12;76.23
61292;BME280;47165;42.664;23.368;2022-08-21T06:21:17;94453.88;;;22.13;75.90
61292;BME280;47165;42.664;23.368;2022-08-21T06:23:42;94459.38;;;22.12;75.00
61292;BME280;47165;42.664;23.368;2022-08-21T06:26:09;94456.72;;;22.12;75.81
61292;BME280;47165;42.664;23.368;2022-08-21T06:28:35;94463.38;;;22.07;73.72
61292;BME280;47165;42.664;23.368;2022-08-21T06:31:01;94455.88;;;22.11;75.17
61292;BME280;47165;42.664;23.368;2022-08-21T06:33:26;94455.00;;;22.19;74.67
61292;BME280;47165;42.664;23.368;2022-08-21T06:35:52;94461.50;;;22.24;74.54
61292;BME280;47165;42.664;23.368;2022-08-21T06:38:17;94454.03;;;22.28;74.62
61292;BME280;47165;42.664;23.368;2022-08-21T06:40:43;94459.19;;;22.29;75.33
61292;BME280;47165;42.664;23.368;2022-08-21T06:43:14;94457.50;;;22.28;74.45
61292;BME280;47165;42.664;23.368;2022-08-21T06:45:41;94465.16;;;22.32;73.47
61292;BME280;47165;42.664;23.368;2022-08-21T06:48:06;94464.97;;;22.33;72.01
61292;BME280;47165;42.664;23.368;2022-08-21T06:50:38;94472.25;;;22.39;71.05
61292;BME280;47165;42.664;23.368;2022-08-21T06:53:10;94460.91;;;22.45;71.42
61292;BME280;47165;42.664;23.368;2022-08-21T06:55:40;94462.06;;;22.51;71.35
61292;BME280;47165;42.664;23.368;2022-08-21T06:58:07;94469.50;;;22.56;69.75
61292;BME280;47165;42.664;23.368;2022-08-21T07:00:33;94470.31;;;22.64;70.47
61292;BME280;47165;42.664;23.368;2022-08-21T07:02:59;94468.78;;;22.70;70.03
61292;BME280;47165;42.664;23.368;2022-08-21T07:05:27;94467.91;;;22.78;69.46
61292;BME280;47165;42.664;23.368;2022-08-21T07:07:52;94475.34;;;22.82;70.63
61292;BME280;47165;42.664;23.368;2022-08-21T07:10:18;94457.84;;;22.88;71.11
61292;BME280;47165;42.664;23.368;2022-08-21T07:12:44;94461.81;;;22.92;70.37
61292;BME280;47165;42.664;23.368;2022-08-21T07:15:09;94467.09;;;23.00;70.10
61292;BME280;47165;42.664;23.368;2022-08-21T07:17:35;94468.09;;;23.07;69.87
61292;BME280;47165;42.664;23.368;2022-08-21T07:20:00;94465.72;;;23.13;67.83
61292;BME280;47165;42.664;23.368;2022-08-21T07:22:26;94472.22;;;23.10;67.53
61292;BME280;47165;42.664;23.368;2022-08-21T07:24:53;94471.69;;;23.15;66.13
61292;BME280;47165;42.664;23.368;2022-08-21T07:27:19;94468.31;;;23.21;65.99
61292;BME280;47165;42.664;23.368;2022-08-21T07:29:44;94461.22;;;23.36;66.36
61292;BME280;47165;42.664;23.368;2022-08-21T07:32:09;94462.13;;;23.43;66.32
61292;BME280;47165;42.664;23.368;2022-08-21T07:34:35;94444.13;;;23.45;64.34
61292;BME280;47165;42.664;23.368;2022-08-21T07:37:00;94447.25;;;23.34;64.90
61292;BME280;47165;42.664;23.368;2022-08-21T07:39:26;94453.03;;;23.38;64.80
61292;BME280;47165;42.664;23.368;2022-08-21T07:41:51;94453.56;;;22.87;65.25
61292;BME280;47165;42.664;23.368;2022-08-21T07:44:17;94451.66;;;22.73;65.65
61292;BME280;47165;42.664;23.368;2022-08-21T07:46:42;94440.00;;;22.97;65.61
61292;BME280;47165;42.664;23.368;2022-08-21T07:49:08;94443.09;;;23.08;66.79
61292;BME280;47165;42.664;23.368;2022-08-21T07:51:33;94437.50;;;23.03;66.10
61292;BME280;47165;42.664;23.368;2022-08-21T07:54:00;94440.56;;;23.15;65.35
61292;BME280;47165;42.664;23.368;2022-08-21T07:56:26;94442.63;;;23.28;65.81
61292;BME280;47165;42.664;23.368;2022-08-21T07:58:52;94439.59;;;23.31;64.22
61292;BME280;47165;42.664;23.368;2022-08-21T08:01:18;94442.38;;;23.38;64.88
61292;BME280;47165;42.664;23.368;2022-08-21T08:03:44;94439.44;;;23.47;64.46
61292;BME280;47165;42.664;23.368;2022-08-21T08:06:10;94444.53;;;23.57;64.48
61292;BME280;47165;42.664;23.368;2022-08-21T08:08:38;94439.31;;;23.64;62.97
61292;BME280;47165;42.664;23.368;2022-08-21T08:11:05;94447.41;;;23.70;64.26
61292;BME280;47165;42.664;23.368;2022-08-21T08:13:30;94435.56;;;23.73;63.50
61292;BME280;47165;42.664;23.368;2022-08-21T08:15:56;94444.50;;;23.80;64.15
61292;BME280;47165;42.664;23.368;2022-08-21T08:18:21;94440.00;;;23.81;62.96
61292;BME280;47165;42.664;23.368;2022-08-21T08:20:47;94441.09;;;23.86;63.44
61292;BME280;47165;42.664;23.368;2022-08-21T08:23:13;94441.19;;;23.93;64.22
61292;BME280;47165;42.664;23.368;2022-08-21T08:25:40;94444.16;;;23.98;64.88
61292;BME280;47165;42.664;23.368;2022-08-21T08:28:06;94443.97;;;24.00;63.19
61292;BME280;47165;42.664;23.368;2022-08-21T08:30:32;94448.94;;;24.03;63.69
61292;BME280;47165;42.664;23.368;2022-08-21T08:32:58;94444.88;;;24.07;63.49
61292;BME280;47165;42.664;23.368;2022-08-21T08:35:25;94451.78;;;23.86;62.57
61292;BME280;47165;42.664;23.368;2022-08-21T08:37:51;94446.19;;;23.96;62.22
61292;BME280;47165;42.664;23.368;2022-08-21T08:40:40;94452.88;;;24.07;62.83
61292;BME280;47165;42.664;23.368;2022-08-21T08:43:09;94450.03;;;24.08;62.65
61292;BME280;47165;42.664;23.368;2022-08-21T08:45:37;94449.31;;;24.15;62.75
61292;BME280;47165;42.664;23.368;2022-08-21T08:48:08;94443.16;;;24.14;61.51
61292;BME280;47165;42.664;23.368;2022-08-21T08:50:45;94444.22;;;24.20;61.76
61292;BME280;47165;42.664;23.368;2022-08-21T08:53:17;94446.81;;;24.28;61.94
61292;BME280;47165;42.664;23.368;2022-08-21T08:55:45;94436.88;;;24.37;61.88
61292;BME280;47165;42.664;23.368;2022-08-21T08:58:38;94431.38;;;24.53;61.77
61292;BME280;47165;42.664;23.368;2022-08-21T09:01:16;94430.63;;;24.59;62.00
61292;BME280;47165;42.664;23.368;2022-08-21T09:03:43;94434.16;;;24.66;61.51
61292;BME280;47165;42.664;23.368;2022-08-21T09:06:34;94434.88;;;24.75;61.11
61292;BME280;47165;42.664;23.368;2022-08-21T09:09:07;94424.66;;;24.79;61.01
61292;BME280;47165;42.664;23.368;2022-08-21T09:12:03;94424.34;;;24.88;59.03
61292;BME280;47165;42.664;23.368;2022-08-21T09:14:42;94419.53;;;24.99;58.90
61292;BME280;47165;42.664;23.368;2022-08-21T09:20:37;94415.28;;;25.26;58.03
61292;BME280;47165;42.664;23.368;2022-08-21T09:28:18;94401.22;;;25.67;60.01
61292;BME280;47165;42.664;23.368;2022-08-21T09:30:43;94401.31;;;25.80;59.94
61292;BME280;47165;42.664;23.368;2022-08-21T09:33:13;94400.19;;;25.96;59.14
61292;BME280;47165;42.664;23.368;2022-08-21T09:35:53;94408.50;;;26.08;55.89
61292;BME280;47165;42.664;23.368;2022-08-21T09:38:31;94399.91;;;26.19;57.72
61292;BME280;47165;42.664;23.368;2022-08-21T09:41:04;94402.59;;;26.19;56.71
61292;BME280;47165;42.664;23.368;2022-08-21T09:43:31;94408.94;;;26.18;57.94
61292;BME280;47165;42.664;23.368;2022-08-21T09:46:09;94404.63;;;26.17;57.36
61292;BME280;47165;42.664;23.368;2022-08-21T09:48:41;94397.00;;;26.14;55.37
61292;BME280;47165;42.664;23.368;2022-08-21T09:51:11;94394.50;;;26.13;54.43
61292;BME280;47165;42.664;23.368;2022-08-21T09:53:42;94389.22;;;26.19;55.70
61292;BME280;47165;42.664;23.368;2022-08-21T09:56:30;94400.91;;;26.18;55.27
61292;BME280;47165;42.664;23.368;2022-08-21T09:59:27;94399.66;;;26.14;55.52
61292;BME280;47165;42.664;23.368;2022-08-21T10:01:56;94399.03;;;26.12;55.92
61292;BME280;47165;42.664;23.368;2022-08-21T10:04:30;94393.09;;;26.17;58.07
61292;BME280;47165;42.664;23.368;2022-08-21T10:07:09;94386.53;;;26.19;56.49
61292;BME280;47165;42.664;23.368;2022-08-21T10:09:35;94391.63;;;26.07;56.73
61292;BME280;47165;42.664;23.368;2022-08-21T10:12:13;94385.63;;;26.05;55.73
61292;BME280;47165;42.664;23.368;2022-08-21T10:25:56;94369.50;;;26.34;54.99
61292;BME280;47165;42.664;23.368;2022-08-21T10:28:44;94367.06;;;26.45;55.11
61292;BME280;47165;42.664;23.368;2022-08-21T10:44:30;94360.63;;;27.01;54.33
61292;BME280;47165;42.664;23.368;2022-08-21T10:47:04;94357.34;;;27.13;55.26
61292;BME280;47165;42.664;23.368;2022-08-21T10:52:24;94354.47;;;27.27;55.07
61292;BME280;47165;42.664;23.368;2022-08-21T10:55:02;94343.34;;;27.31;54.34
61292;BME280;47165;42.664;23.368;2022-08-21T10:57:56;94337.97;;;27.44;54.15
61292;BME280;47165;42.664;23.368;2022-08-21T11:00:26;94336.72;;;27.60;53.47
61292;BME280;47165;42.664;23.368;2022-08-21T11:05:48;94330.69;;;27.91;52.67
61292;BME280;47165;42.664;23.368;2022-08-21T11:08:44;94324.59;;;28.16;51.38
61292;BME280;47165;42.664;23.368;2022-08-21T11:11:19;94319.56;;;28.39;50.06
61292;BME280;47165;42.664;23.368;2022-08-21T11:14:09;94313.94;;;28.54;49.73
61292;BME280;47165;42.664;23.368;2022-08-21T11:16:49;94306.91;;;28.46;49.53
61292;BME280;47165;42.664;23.368;2022-08-21T11:22:37;94294.75;;;29.07;49.02
61292;BME280;47165;42.664;23.368;2022-08-21T11:25:28;94298.31;;;29.33;46.10
61292;BME280;47165;42.664;23.368;2022-08-21T11:28:06;94309.69;;;29.54;47.06
61292;BME280;47165;42.664;23.368;2022-08-21T11:30:46;94302.16;;;29.62;46.54
61292;BME280;47165;42.664;23.368;2022-08-21T11:33:45;94295.41;;;29.78;47.20
61292;BME280;47165;42.664;23.368;2022-08-21T11:39:02;94299.72;;;29.98;45.90
61292;BME280;47165;42.664;23.368;2022-08-21T11:41:38;94295.91;;;30.05;46.35
61292;BME280;47165;42.664;23.368;2022-08-21T11:47:06;94298.72;;;30.29;45.53
61292;BME280;47165;42.664;23.368;2022-08-21T11:52:39;94301.38;;;30.36;45.29
61292;BME280;47165;42.664;23.368;2022-08-21T11:58:00;94287.44;;;30.39;45.50
61292;BME280;47165;42.664;23.368;2022-08-21T12:00:42;94287.97;;;30.11;43.12
61292;BME280;47165;42.664;23.368;2022-08-21T12:03:14;94292.13;;;29.95;44.16
61292;BME280;47165;42.664;23.368;2022-08-21T12:05:44;94284.03;;;29.76;45.71
61292;BME280;47165;42.664;23.368;2022-08-21T12:08:28;94284.00;;;29.58;46.34
61292;BME280;47165;42.664;23.368;2022-08-21T12:14:12;94270.84;;;29.24;47.07
61292;BME280;47165;42.664;23.368;2022-08-21T12:16:46;94276.16;;;29.13;47.02
61292;BME280;47165;42.664;23.368;2022-08-21T12:19:14;94276.22;;;28.99;45.99
61292;BME280;47165;42.664;23.368;2022-08-21T12:21:59;94281.84;;;28.91;46.76
61292;BME280;47165;42.664;23.368;2022-08-21T12:24:41;94282.13;;;28.83;46.16
61292;BME280;47165;42.664;23.368;2022-08-21T12:27:20;94290.19;;;28.83;47.07
61292;BME280;47165;42.664;23.368;2022-08-21T12:30:02;94282.38;;;28.75;45.74
61292;BME280;47165;42.664;23.368;2022-08-21T12:35:19;94293.09;;;28.49;46.26
61292;BME280;47165;42.664;23.368;2022-08-21T12:37:50;94297.25;;;28.39;47.78
61292;BME280;47165;42.664;23.368;2022-08-21T12:40:22;94282.63;;;28.28;49.60
61292;BME280;47165;42.664;23.368;2022-08-21T12:42:51;94289.09;;;28.20;50.20
61292;BME280;47165;42.664;23.368;2022-08-21T12:45:45;94284.56;;;28.14;50.21
61292;BME280;47165;42.664;23.368;2022-08-21T12:48:28;94276.31;;;28.09;49.58
61292;BME280;47165;42.664;23.368;2022-08-21T12:53:40;94284.00;;;27.99;48.84
61292;BME280;47165;42.664;23.368;2022-08-21T12:56:14;94285.72;;;27.86;47.94
61292;BME280;47165;42.664;23.368;2022-08-21T12:58:44;94278.91;;;27.77;47.36
61292;BME280;47165;42.664;23.368;2022-08-21T13:01:21;94268.41;;;27.69;46.67
61292;BME280;47165;42.664;23.368;2022-08-21T13:03:50;94270.06;;;27.63;48.41
61292;BME280;47165;42.664;23.368;2022-08-21T13:06:20;94270.31;;;27.55;49.39
61292;BME280;47165;42.664;23.368;2022-08-21T13:08:47;94266.59;;;27.49;49.32
61292;BME280;47165;42.664;23.368;2022-08-21T13:11:18;94264.34;;;27.40;49.76
61292;BME280;47165;42.664;23.368;2022-08-21T13:13:49;94276.28;;;27.44;50.00
61292;BME280;47165;42.664;23.368;2022-08-21T13:16:20;94278.59;;;27.40;50.85
61292;BME280;47165;42.664;23.368;2022-08-21T13:19:05;94269.09;;;27.31;49.81
61292;BME280;47165;42.664;23.368;2022-08-21T13:21:39;94269.53;;;27.28;50.17
61292;BME280;47165;42.664;23.368;2022-08-21T13:24:22;94267.06;;;27.26;50.67
61292;BME280;47165;42.664;23.368;2022-08-21T13:26:48;94263.31;;;27.21;51.76
61292;BME280;47165;42.664;23.368;2022-08-21T13:29:17;94266.63;;;27.23;52.90
61292;BME280;47165;42.664;23.368;2022-08-21T13:31:53;94262.50;;;27.27;53.68
61292;BME280;47165;42.664;23.368;2022-08-21T13:34:24;94244.13;;;27.37;52.45
61292;BME280;47165;42.664;23.368;2022-08-21T13:36:54;94232.75;;;27.55;53.24
61292;BME280;47165;42.664;23.368;2022-08-21T13:39:21;94231.84;;;27.81;53.17
61292;BME280;47165;42.664;23.368;2022-08-21T13:41:49;94231.56;;;28.03;51.35
61292;BME280;47165;42.664;23.368;2022-08-21T13:44:22;94239.50;;;28.23;50.70
61292;BME280;47165;42.664;23.368;2022-08-21T13:46:52;94240.13;;;28.25;50.49
61292;BME280;47165;42.664;23.368;2022-08-21T13:49:23;94240.13;;;28.25;50.89
61292;BME280;47165;42.664;23.368;2022-08-21T13:51:51;94252.72;;;28.24;52.62
61292;BME280;47165;42.664;23.368;2022-08-21T13:54:33;94251.66;;;28.25;52.43
61292;BME280;47165;42.664;23.368;2022-08-21T13:56:59;94247.13;;;28.26;52.19
61292;BME280;47165;42.664;23.368;2022-08-21T14:04:33;94239.88;;;28.33;53.08
61292;BME280;47165;42.664;23.368;2022-08-21T14:07:01;94232.88;;;28.25;52.81
61292;BME280;47165;42.664;23.368;2022-08-21T14:09:32;94232.47;;;28.28;52.94
61292;BME280;47165;42.664;23.368;2022-08-21T14:12:02;94239.91;;;28.26;53.53